sensor_id;sensor_type;location;lat;lon;timestamp;P1;durP1;ratioP1;P2;durP2;ratioP2
77040;SDS011;65974;42.664;23.264;2023-04-24T00:01:11;12.55;;;10.38;;
77040;SDS011;65974;42.664;23.264;2023-04-24T00:03:37;12.30;;;9.40;;
77040;SDS011;65974;42.664;23.264;2023-04-24T00:06:04;10.80;;;9.18;;
77040;SDS011;65974;42.664;23.264;2023-04-24T00:08:31;16.75;;;8.05;;
77040;SDS011;65974;42.664;23.264;2023-04-24T00:10:57;11.18;;;8.88;;
77040;SDS011;65974;42.664;23.264;2023-04-24T00:13:23;14.02;;;8.02;;
77040;SDS011;65974;42.664;23.264;2023-04-24T00:15:49;11.30;;;8.57;;
77040;SDS011;65974;42.664;23.264;2023-04-24T00:18:14;14.52;;;9.07;;
77040;SDS011;65974;42.664;23.264;2023-04-24T00:20:40;13.48;;;10.05;;
77040;SDS011;65974;42.664;23.264;2023-04-24T00:23:05;13.10;;;9.32;;
77040;SDS011;65974;42.664;23.264;2023-04-24T00:25:31;12.75;;;9.57;;
77040;SDS011;65974;42.664;23.264;2023-04-24T00:27:56;17.52;;;9.32;;
77040;SDS011;65974;42.664;23.264;2023-04-24T00:30:22;10.55;;;8.27;;
77040;SDS011;65974;42.664;23.264;2023-04-24T00:32:47;13.52;;;8.70;;
77040;SDS011;65974;42.664;23.264;2023-04-24T00:35:13;11.68;;;8.23;;
77040;SDS011;65974;42.664;23.264;2023-04-24T00:37:39;15.90;;;10.10;;
77040;SDS011;65974;42.664;23.264;2023-04-24T00:40:05;15.23;;;9.80;;
77040;SDS011;65974;42.664;23.264;2023-04-24T00:42:31;20.83;;;9.73;;
77040;SDS011;65974;42.664;23.264;2023-04-24T00:44:57;13.52;;;6.85;;
77040;SDS011;65974;42.664;23.264;2023-04-24T00:47:24;11.80;;;9.90;;
77040;SDS011;65974;42.664;23.264;2023-04-24T00:49:50;15.07;;;10.75;;
77040;SDS011;65974;42.664;23.264;2023-04-24T00:52:15;14.00;;;9.60;;
77040;SDS011;65974;42.664;23.264;2023-04-24T00:54:43;13.20;;;10.80;;
77040;SDS011;65974;42.664;23.264;2023-04-24T00:57:10;14.40;;;9.45;;
77040;SDS011;65974;42.664;23.264;2023-04-24T00:59:36;11.07;;;7.75;;
77040;SDS011;65974;42.664;23.264;2023-04-24T01:02:02;12.02;;;8.52;;
77040;SDS011;65974;42.664;23.264;2023-04-24T01:04:28;14.15;;;9.85;;
77040;SDS011;65974;42.664;23.264;2023-04-24T01:06:54;15.60;;;10.10;;
77040;SDS011;65974;42.664;23.264;2023-04-24T01:09:21;15.07;;;10.25;;
77040;SDS011;65974;42.664;23.264;2023-04-24T01:11:49;13.10;;;9.73;;
77040;SDS011;65974;42.664;23.264;2023-04-24T01:14:14;13.60;;;9.50;;
77040;SDS011;65974;42.664;23.264;2023-04-24T01:16:40;15.02;;;10.20;;
77040;SDS011;65974;42.664;23.264;2023-04-24T01:19:07;12.75;;;8.32;;
77040;SDS011;65974;42.664;23.264;2023-04-24T01:21:37;14.18;;;11.23;;
77040;SDS011;65974;42.664;23.264;2023-04-24T01:24:03;14.32;;;10.25;;
77040;SDS011;65974;42.664;23.264;2023-04-24T01:26:30;12.88;;;8.23;;
77040;SDS011;65974;42.664;23.264;2023-04-24T01:28:56;17.50;;;10.27;;
77040;SDS011;65974;42.664;23.264;2023-04-24T01:31:21;13.63;;;9.88;;
77040;SDS011;65974;42.664;23.264;2023-04-24T01:33:47;13.25;;;9.50;;
77040;SDS011;65974;42.664;23.264;2023-04-24T01:36:13;14.52;;;10.88;;
77040;SDS011;65974;42.664;23.264;2023-04-24T01:38:38;14.50;;;10.90;;
77040;SDS011;65974;42.664;23.264;2023-04-24T01:41:04;15.82;;;11.98;;
77040;SDS011;65974;42.664;23.264;2023-04-24T01:43:29;10.88;;;8.20;;
77040;SDS011;65974;42.664;23.264;2023-04-24T01:45:55;22.98;;;11.35;;
77040;SDS011;65974;42.664;23.264;2023-04-24T01:48:21;14.32;;;9.07;;
77040;SDS011;65974;42.664;23.264;2023-04-24T01:50:47;16.02;;;9.38;;
77040;SDS011;65974;42.664;23.264;2023-04-24T01:53:12;16.42;;;10.00;;
77040;SDS011;65974;42.664;23.264;2023-04-24T01:55:38;13.32;;;9.48;;
77040;SDS011;65974;42.664;23.264;2023-04-24T01:58:03;12.43;;;9.05;;
77040;SDS011;65974;42.664;23.264;2023-04-24T02:00:30;14.57;;;9.27;;
77040;SDS011;65974;42.664;23.264;2023-04-24T02:02:56;12.52;;;10.20;;
77040;SDS011;65974;42.664;23.264;2023-04-24T02:05:21;12.68;;;9.07;;
77040;SDS011;65974;42.664;23.264;2023-04-24T02:07:46;12.63;;;10.40;;
77040;SDS011;65974;42.664;23.264;2023-04-24T02:10:12;12.85;;;9.73;;
77040;SDS011;65974;42.664;23.264;2023-04-24T02:12:37;14.57;;;9.73;;
77040;SDS011;65974;42.664;23.264;2023-04-24T02:17:31;17.38;;;12.40;;
77040;SDS011;65974;42.664;23.264;2023-04-24T02:19:57;16.15;;;9.45;;
77040;SDS011;65974;42.664;23.264;2023-04-24T02:22:22;14.13;;;10.63;;
77040;SDS011;65974;42.664;23.264;2023-04-24T02:24:50;17.00;;;10.23;;
77040;SDS011;65974;42.664;23.264;2023-04-24T02:27:16;16.40;;;11.30;;
77040;SDS011;65974;42.664;23.264;2023-04-24T02:29:42;20.17;;;11.57;;
77040;SDS011;65974;42.664;23.264;2023-04-24T02:32:08;12.23;;;8.98;;
77040;SDS011;65974;42.664;23.264;2023-04-24T02:34:36;16.65;;;10.88;;
77040;SDS011;65974;42.664;23.264;2023-04-24T02:37:02;15.77;;;11.75;;
77040;SDS011;65974;42.664;23.264;2023-04-24T02:39:27;14.45;;;10.85;;
77040;SDS011;65974;42.664;23.264;2023-04-24T02:41:53;17.05;;;8.80;;
77040;SDS011;65974;42.664;23.264;2023-04-24T02:44:18;14.07;;;11.23;;
77040;SDS011;65974;42.664;23.264;2023-04-24T02:46:44;16.40;;;11.48;;
77040;SDS011;65974;42.664;23.264;2023-04-24T02:49:09;16.02;;;11.45;;
77040;SDS011;65974;42.664;23.264;2023-04-24T02:51:36;16.35;;;11.85;;
77040;SDS011;65974;42.664;23.264;2023-04-24T02:54:05;14.45;;;10.75;;
77040;SDS011;65974;42.664;23.264;2023-04-24T02:56:31;13.60;;;10.85;;
77040;SDS011;65974;42.664;23.264;2023-04-24T02:58:56;12.20;;;8.38;;
77040;SDS011;65974;42.664;23.264;2023-04-24T03:01:21;11.73;;;9.68;;
77040;SDS011;65974;42.664;23.264;2023-04-24T03:03:47;15.20;;;12.02;;
77040;SDS011;65974;42.664;23.264;2023-04-24T03:06:12;12.57;;;9.40;;
77040;SDS011;65974;42.664;23.264;2023-04-24T03:08:38;17.77;;;11.98;;
77040;SDS011;65974;42.664;23.264;2023-04-24T03:11:03;12.80;;;10.57;;
77040;SDS011;65974;42.664;23.264;2023-04-24T03:13:30;12.85;;;9.90;;
77040;SDS011;65974;42.664;23.264;2023-04-24T03:15:55;15.45;;;11.65;;
77040;SDS011;65974;42.664;23.264;2023-04-24T03:18:22;12.63;;;10.25;;
77040;SDS011;65974;42.664;23.264;2023-04-24T03:20:48;12.55;;;9.65;;
77040;SDS011;65974;42.664;23.264;2023-04-24T03:23:15;15.65;;;8.30;;
77040;SDS011;65974;42.664;23.264;2023-04-24T03:25:42;14.20;;;10.77;;
77040;SDS011;65974;42.664;23.264;2023-04-24T03:28:08;15.27;;;9.23;;
77040;SDS011;65974;42.664;23.264;2023-04-24T03:30:33;12.63;;;8.05;;
77040;SDS011;65974;42.664;23.264;2023-04-24T03:32:59;14.98;;;9.23;;
77040;SDS011;65974;42.664;23.264;2023-04-24T03:35:25;13.35;;;10.70;;
77040;SDS011;65974;42.664;23.264;2023-04-24T03:37:50;11.95;;;9.40;;
77040;SDS011;65974;42.664;23.264;2023-04-24T03:40:16;16.95;;;10.85;;
77040;SDS011;65974;42.664;23.264;2023-04-24T03:42:41;14.65;;;9.27;;
77040;SDS011;65974;42.664;23.264;2023-04-24T03:45:07;13.75;;;9.88;;
77040;SDS011;65974;42.664;23.264;2023-04-24T03:47:33;10.73;;;9.63;;
77040;SDS011;65974;42.664;23.264;2023-04-24T03:49:59;11.95;;;9.25;;
77040;SDS011;65974;42.664;23.264;2023-04-24T03:52:24;10.32;;;8.30;;
77040;SDS011;65974;42.664;23.264;2023-04-24T03:54:49;11.82;;;10.55;;
77040;SDS011;65974;42.664;23.264;2023-04-24T03:57:15;16.55;;;8.88;;
77040;SDS011;65974;42.664;23.264;2023-04-24T03:59:40;14.25;;;10.18;;
77040;SDS011;65974;42.664;23.264;2023-04-24T04:02:06;13.30;;;10.93;;
77040;SDS011;65974;42.664;23.264;2023-04-24T04:04:32;12.23;;;9.63;;
77040;SDS011;65974;42.664;23.264;2023-04-24T04:06:57;14.57;;;9.98;;
77040;SDS011;65974;42.664;23.264;2023-04-24T04:09:26;9.57;;;6.75;;
77040;SDS011;65974;42.664;23.264;2023-04-24T04:11:53;12.38;;;10.43;;
77040;SDS011;65974;42.664;23.264;2023-04-24T04:14:19;12.68;;;9.00;;
77040;SDS011;65974;42.664;23.264;2023-04-24T04:16:44;10.20;;;9.05;;
77040;SDS011;65974;42.664;23.264;2023-04-24T04:19:10;12.45;;;8.60;;
77040;SDS011;65974;42.664;23.264;2023-04-24T04:21:35;12.00;;;8.75;;
77040;SDS011;65974;42.664;23.264;2023-04-24T04:24:01;12.02;;;8.60;;
77040;SDS011;65974;42.664;23.264;2023-04-24T04:26:27;10.80;;;9.15;;
77040;SDS011;65974;42.664;23.264;2023-04-24T04:28:52;12.05;;;8.65;;
77040;SDS011;65974;42.664;23.264;2023-04-24T04:31:19;15.23;;;10.63;;
77040;SDS011;65974;42.664;23.264;2023-04-24T04:33:45;17.08;;;9.18;;
77040;SDS011;65974;42.664;23.264;2023-04-24T04:36:10;12.68;;;8.95;;
77040;SDS011;65974;42.664;23.264;2023-04-24T04:38:37;12.55;;;8.70;;
77040;SDS011;65974;42.664;23.264;2023-04-24T04:41:02;12.90;;;9.43;;
77040;SDS011;65974;42.664;23.264;2023-04-24T04:43:28;10.77;;;8.38;;
77040;SDS011;65974;42.664;23.264;2023-04-24T04:45:53;13.68;;;10.05;;
77040;SDS011;65974;42.664;23.264;2023-04-24T04:48:20;18.45;;;9.68;;
77040;SDS011;65974;42.664;23.264;2023-04-24T04:50:46;14.73;;;8.32;;
77040;SDS011;65974;42.664;23.264;2023-04-24T04:53:12;11.48;;;8.93;;
77040;SDS011;65974;42.664;23.264;2023-04-24T04:55:38;12.68;;;9.02;;
77040;SDS011;65974;42.664;23.264;2023-04-24T04:58:03;11.93;;;9.18;;
77040;SDS011;65974;42.664;23.264;2023-04-24T05:00:29;12.18;;;7.93;;
77040;SDS011;65974;42.664;23.264;2023-04-24T05:03:00;13.57;;;7.88;;
77040;SDS011;65974;42.664;23.264;2023-04-24T05:05:25;15.27;;;9.30;;
77040;SDS011;65974;42.664;23.264;2023-04-24T05:07:51;11.80;;;8.00;;
77040;SDS011;65974;42.664;23.264;2023-04-24T05:10:16;14.70;;;8.40;;
77040;SDS011;65974;42.664;23.264;2023-04-24T05:12:42;10.90;;;7.60;;
77040;SDS011;65974;42.664;23.264;2023-04-24T05:15:07;11.10;;;8.45;;
77040;SDS011;65974;42.664;23.264;2023-04-24T05:17:33;10.23;;;7.57;;
77040;SDS011;65974;42.664;23.264;2023-04-24T05:19:58;13.70;;;9.73;;
77040;SDS011;65974;42.664;23.264;2023-04-24T05:22:24;13.10;;;9.88;;
77040;SDS011;65974;42.664;23.264;2023-04-24T05:24:49;13.27;;;10.60;;
77040;SDS011;65974;42.664;23.264;2023-04-24T05:27:16;22.10;;;10.75;;
77040;SDS011;65974;42.664;23.264;2023-04-24T05:29:41;13.02;;;10.00;;
77040;SDS011;65974;42.664;23.264;2023-04-24T05:32:07;13.93;;;11.07;;
77040;SDS011;65974;42.664;23.264;2023-04-24T05:34:32;12.38;;;9.52;;
77040;SDS011;65974;42.664;23.264;2023-04-24T05:36:58;16.50;;;9.63;;
77040;SDS011;65974;42.664;23.264;2023-04-24T05:39:23;15.35;;;8.20;;
77040;SDS011;65974;42.664;23.264;2023-04-24T05:41:50;17.88;;;10.25;;
77040;SDS011;65974;42.664;23.264;2023-04-24T05:44:15;12.10;;;7.53;;
77040;SDS011;65974;42.664;23.264;2023-04-24T05:46:41;9.82;;;7.82;;
77040;SDS011;65974;42.664;23.264;2023-04-24T05:49:06;8.68;;;7.22;;
77040;SDS011;65974;42.664;23.264;2023-04-24T05:51:32;8.73;;;6.95;;
77040;SDS011;65974;42.664;23.264;2023-04-24T05:53:58;11.32;;;7.25;;
77040;SDS011;65974;42.664;23.264;2023-04-24T05:56:23;9.73;;;7.00;;
77040;SDS011;65974;42.664;23.264;2023-04-24T05:58:49;9.68;;;6.40;;
77040;SDS011;65974;42.664;23.264;2023-04-24T06:01:14;10.13;;;6.30;;
77040;SDS011;65974;42.664;23.264;2023-04-24T06:03:40;10.43;;;7.22;;
77040;SDS011;65974;42.664;23.264;2023-04-24T06:06:06;10.10;;;6.95;;
77040;SDS011;65974;42.664;23.264;2023-04-24T06:08:33;10.85;;;7.63;;
77040;SDS011;65974;42.664;23.264;2023-04-24T06:10:58;13.07;;;6.32;;
77040;SDS011;65974;42.664;23.264;2023-04-24T06:13:24;6.18;;;5.25;;
77040;SDS011;65974;42.664;23.264;2023-04-24T06:15:50;10.98;;;7.75;;
77040;SDS011;65974;42.664;23.264;2023-04-24T06:18:15;11.55;;;7.38;;
77040;SDS011;65974;42.664;23.264;2023-04-24T06:20:41;11.70;;;7.05;;
77040;SDS011;65974;42.664;23.264;2023-04-24T06:23:06;10.98;;;6.72;;
77040;SDS011;65974;42.664;23.264;2023-04-24T06:25:32;11.35;;;8.05;;
77040;SDS011;65974;42.664;23.264;2023-04-24T06:27:58;9.48;;;7.85;;
77040;SDS011;65974;42.664;23.264;2023-04-24T06:30:23;9.35;;;7.45;;
77040;SDS011;65974;42.664;23.264;2023-04-24T06:32:49;11.32;;;7.93;;
77040;SDS011;65974;42.664;23.264;2023-04-24T06:35:14;11.30;;;7.55;;
77040;SDS011;65974;42.664;23.264;2023-04-24T06:37:40;15.55;;;9.00;;
77040;SDS011;65974;42.664;23.264;2023-04-24T06:40:07;10.93;;;8.75;;
77040;SDS011;65974;42.664;23.264;2023-04-24T06:42:33;11.05;;;8.60;;
77040;SDS011;65974;42.664;23.264;2023-04-24T06:45:00;14.00;;;9.75;;
77040;SDS011;65974;42.664;23.264;2023-04-24T06:47:26;10.65;;;8.30;;
77040;SDS011;65974;42.664;23.264;2023-04-24T06:49:51;12.48;;;8.98;;
77040;SDS011;65974;42.664;23.264;2023-04-24T06:52:17;15.23;;;8.60;;
77040;SDS011;65974;42.664;23.264;2023-04-24T06:54:43;13.20;;;8.77;;
77040;SDS011;65974;42.664;23.264;2023-04-24T06:57:08;13.35;;;8.90;;
77040;SDS011;65974;42.664;23.264;2023-04-24T06:59:37;12.30;;;8.02;;
77040;SDS011;65974;42.664;23.264;2023-04-24T07:02:04;11.75;;;8.40;;
77040;SDS011;65974;42.664;23.264;2023-04-24T07:04:30;15.13;;;9.65;;
77040;SDS011;65974;42.664;23.264;2023-04-24T07:06:56;12.80;;;8.43;;
77040;SDS011;65974;42.664;23.264;2023-04-24T07:09:23;13.90;;;8.65;;
77040;SDS011;65974;42.664;23.264;2023-04-24T07:11:50;12.07;;;8.85;;
77040;SDS011;65974;42.664;23.264;2023-04-24T07:14:16;15.30;;;8.65;;
77040;SDS011;65974;42.664;23.264;2023-04-24T07:16:42;14.05;;;7.93;;
77040;SDS011;65974;42.664;23.264;2023-04-24T07:19:08;12.00;;;9.18;;
77040;SDS011;65974;42.664;23.264;2023-04-24T07:21:33;14.18;;;8.95;;
77040;SDS011;65974;42.664;23.264;2023-04-24T07:23:59;13.27;;;8.35;;
77040;SDS011;65974;42.664;23.264;2023-04-24T07:26:26;11.57;;;7.93;;
77040;SDS011;65974;42.664;23.264;2023-04-24T07:28:52;11.85;;;8.48;;
77040;SDS011;65974;42.664;23.264;2023-04-24T07:31:18;10.82;;;8.10;;
77040;SDS011;65974;42.664;23.264;2023-04-24T07:33:44;11.65;;;7.40;;
77040;SDS011;65974;42.664;23.264;2023-04-24T07:36:09;15.88;;;8.63;;
77040;SDS011;65974;42.664;23.264;2023-04-24T07:38:40;9.32;;;7.70;;
77040;SDS011;65974;42.664;23.264;2023-04-24T07:41:07;24.92;;;9.30;;
77040;SDS011;65974;42.664;23.264;2023-04-24T07:43:32;11.65;;;7.80;;
77040;SDS011;65974;42.664;23.264;2023-04-24T07:45:57;15.57;;;8.63;;
77040;SDS011;65974;42.664;23.264;2023-04-24T07:48:23;7.88;;;6.95;;
77040;SDS011;65974;42.664;23.264;2023-04-24T07:50:51;9.45;;;7.10;;
77040;SDS011;65974;42.664;23.264;2023-04-24T07:53:16;9.40;;;6.95;;
77040;SDS011;65974;42.664;23.264;2023-04-24T07:55:41;10.18;;;8.43;;
77040;SDS011;65974;42.664;23.264;2023-04-24T07:58:07;9.05;;;7.13;;
77040;SDS011;65974;42.664;23.264;2023-04-24T08:00:32;8.73;;;6.85;;
77040;SDS011;65974;42.664;23.264;2023-04-24T08:02:58;9.27;;;6.88;;
77040;SDS011;65974;42.664;23.264;2023-04-24T08:05:24;10.23;;;7.53;;
77040;SDS011;65974;42.664;23.264;2023-04-24T08:07:52;10.13;;;6.32;;
77040;SDS011;65974;42.664;23.264;2023-04-24T08:10:17;10.30;;;6.95;;
77040;SDS011;65974;42.664;23.264;2023-04-24T08:12:43;7.72;;;5.43;;
77040;SDS011;65974;42.664;23.264;2023-04-24T08:15:08;10.23;;;7.43;;
77040;SDS011;65974;42.664;23.264;2023-04-24T08:17:34;11.52;;;7.50;;
77040;SDS011;65974;42.664;23.264;2023-04-24T08:20:00;8.57;;;6.78;;
77040;SDS011;65974;42.664;23.264;2023-04-24T08:22:27;9.50;;;7.88;;
77040;SDS011;65974;42.664;23.264;2023-04-24T08:24:53;11.85;;;7.07;;
77040;SDS011;65974;42.664;23.264;2023-04-24T08:27:19;9.68;;;7.45;;
77040;SDS011;65974;42.664;23.264;2023-04-24T08:29:44;11.63;;;7.70;;
77040;SDS011;65974;42.664;23.264;2023-04-24T08:32:10;10.80;;;7.20;;
77040;SDS011;65974;42.664;23.264;2023-04-24T08:34:35;9.73;;;7.68;;
77040;SDS011;65974;42.664;23.264;2023-04-24T08:37:01;9.13;;;7.93;;
77040;SDS011;65974;42.664;23.264;2023-04-24T08:39:27;11.80;;;8.07;;
77040;SDS011;65974;42.664;23.264;2023-04-24T08:41:52;9.32;;;7.45;;
77040;SDS011;65974;42.664;23.264;2023-04-24T08:44:18;9.02;;;7.00;;
77040;SDS011;65974;42.664;23.264;2023-04-24T08:46:44;11.98;;;8.02;;
77040;SDS011;65974;42.664;23.264;2023-04-24T08:49:11;11.77;;;7.72;;
77040;SDS011;65974;42.664;23.264;2023-04-24T08:51:39;10.15;;;6.88;;
77040;SDS011;65974;42.664;23.264;2023-04-24T08:54:05;13.73;;;7.57;;
77040;SDS011;65974;42.664;23.264;2023-04-24T08:56:32;10.43;;;8.07;;
77040;SDS011;65974;42.664;23.264;2023-04-24T08:58:58;12.48;;;6.65;;
77040;SDS011;65974;42.664;23.264;2023-04-24T09:01:24;9.95;;;7.95;;
77040;SDS011;65974;42.664;23.264;2023-04-24T09:03:50;11.15;;;7.95;;
77040;SDS011;65974;42.664;23.264;2023-04-24T09:06:18;9.50;;;7.15;;
77040;SDS011;65974;42.664;23.264;2023-04-24T09:08:45;9.32;;;7.60;;
77040;SDS011;65974;42.664;23.264;2023-04-24T09:11:11;10.60;;;8.35;;
77040;SDS011;65974;42.664;23.264;2023-04-24T09:13:37;11.05;;;7.18;;
77040;SDS011;65974;42.664;23.264;2023-04-24T09:16:03;16.17;;;7.25;;
77040;SDS011;65974;42.664;23.264;2023-04-24T09:18:29;10.52;;;7.93;;
77040;SDS011;65974;42.664;23.264;2023-04-24T09:21:12;11.85;;;7.88;;
77040;SDS011;65974;42.664;23.264;2023-04-24T09:23:37;28.70;;;11.10;;
77040;SDS011;65974;42.664;23.264;2023-04-24T09:26:03;10.05;;;7.30;;
77040;SDS011;65974;42.664;23.264;2023-04-24T09:28:36;12.98;;;7.25;;
77040;SDS011;65974;42.664;23.264;2023-04-24T09:31:04;12.23;;;7.53;;
77040;SDS011;65974;42.664;23.264;2023-04-24T09:33:30;7.93;;;6.28;;
77040;SDS011;65974;42.664;23.264;2023-04-24T09:35:55;10.52;;;6.80;;
77040;SDS011;65974;42.664;23.264;2023-04-24T09:38:42;10.60;;;7.40;;
77040;SDS011;65974;42.664;23.264;2023-04-24T09:41:07;12.07;;;6.07;;
77040;SDS011;65974;42.664;23.264;2023-04-24T09:43:34;12.82;;;7.18;;
77040;SDS011;65974;42.664;23.264;2023-04-24T09:46:04;9.45;;;7.50;;
77040;SDS011;65974;42.664;23.264;2023-04-24T09:48:31;7.80;;;6.28;;
77040;SDS011;65974;42.664;23.264;2023-04-24T09:50:58;11.05;;;6.75;;
77040;SDS011;65974;42.664;23.264;2023-04-24T09:53:24;12.60;;;7.00;;
77040;SDS011;65974;42.664;23.264;2023-04-24T09:55:50;8.95;;;7.05;;
77040;SDS011;65974;42.664;23.264;2023-04-24T09:58:18;9.57;;;5.53;;
77040;SDS011;65974;42.664;23.264;2023-04-24T10:00:49;10.77;;;7.15;;
77040;SDS011;65974;42.664;23.264;2023-04-24T10:03:18;9.00;;;6.90;;
77040;SDS011;65974;42.664;23.264;2023-04-24T10:05:44;8.50;;;6.15;;
77040;SDS011;65974;42.664;23.264;2023-04-24T10:08:12;9.48;;;6.03;;
77040;SDS011;65974;42.664;23.264;2023-04-24T10:10:42;9.07;;;6.10;;
77040;SDS011;65974;42.664;23.264;2023-04-24T10:13:12;10.82;;;6.65;;
77040;SDS011;65974;42.664;23.264;2023-04-24T10:15:38;11.00;;;5.75;;
77040;SDS011;65974;42.664;23.264;2023-04-24T10:18:06;7.88;;;5.47;;
77040;SDS011;65974;42.664;23.264;2023-04-24T10:20:33;12.18;;;6.20;;
77040;SDS011;65974;42.664;23.264;2023-04-24T10:23:00;9.52;;;6.25;;
77040;SDS011;65974;42.664;23.264;2023-04-24T10:25:26;13.40;;;5.45;;
77040;SDS011;65974;42.664;23.264;2023-04-24T10:27:54;7.45;;;4.85;;
77040;SDS011;65974;42.664;23.264;2023-04-24T10:30:24;8.18;;;4.40;;
77040;SDS011;65974;42.664;23.264;2023-04-24T10:32:54;6.05;;;4.65;;
77040;SDS011;65974;42.664;23.264;2023-04-24T10:35:20;6.60;;;4.72;;
77040;SDS011;65974;42.664;23.264;2023-04-24T10:37:50;5.97;;;4.20;;
77040;SDS011;65974;42.664;23.264;2023-04-24T10:40:25;8.45;;;4.65;;
77040;SDS011;65974;42.664;23.264;2023-04-24T10:42:52;6.20;;;4.20;;
77040;SDS011;65974;42.664;23.264;2023-04-24T10:45:20;6.53;;;4.78;;
77040;SDS011;65974;42.664;23.264;2023-04-24T10:47:59;7.03;;;4.00;;
77040;SDS011;65974;42.664;23.264;2023-04-24T10:50:29;7.50;;;4.68;;
77040;SDS011;65974;42.664;23.264;2023-04-24T10:55:40;7.53;;;4.20;;
77040;SDS011;65974;42.664;23.264;2023-04-24T10:58:10;5.13;;;4.30;;
77040;SDS011;65974;42.664;23.264;2023-04-24T11:00:37;4.45;;;3.75;;
77040;SDS011;65974;42.664;23.264;2023-04-24T11:03:04;5.80;;;3.95;;
77040;SDS011;65974;42.664;23.264;2023-04-24T11:06:04;7.03;;;4.57;;
77040;SDS011;65974;42.664;23.264;2023-04-24T11:11:06;4.85;;;4.10;;
77040;SDS011;65974;42.664;23.264;2023-04-24T11:16:26;4.93;;;4.43;;
77040;SDS011;65974;42.664;23.264;2023-04-24T11:21:44;5.57;;;4.05;;
77040;SDS011;65974;42.664;23.264;2023-04-24T11:29:38;5.28;;;4.25;;
77040;SDS011;65974;42.664;23.264;2023-04-24T11:35:02;5.93;;;3.70;;
77040;SDS011;65974;42.664;23.264;2023-04-24T11:37:36;9.63;;;5.43;;
77040;SDS011;65974;42.664;23.264;2023-04-24T11:40:03;10.05;;;5.28;;
77040;SDS011;65974;42.664;23.264;2023-04-24T11:42:40;6.43;;;5.15;;
77040;SDS011;65974;42.664;23.264;2023-04-24T11:45:10;5.82;;;4.80;;
77040;SDS011;65974;42.664;23.264;2023-04-24T11:47:37;7.95;;;5.05;;
77040;SDS011;65974;42.664;23.264;2023-04-24T11:50:04;3.58;;;3.13;;
77040;SDS011;65974;42.664;23.264;2023-04-24T11:52:33;6.90;;;5.05;;
77040;SDS011;65974;42.664;23.264;2023-04-24T11:55:01;9.25;;;6.50;;
77040;SDS011;65974;42.664;23.264;2023-04-24T11:57:27;5.10;;;4.57;;
77040;SDS011;65974;42.664;23.264;2023-04-24T11:59:53;3.13;;;2.83;;
77040;SDS011;65974;42.664;23.264;2023-04-24T12:02:20;5.43;;;4.93;;
77040;SDS011;65974;42.664;23.264;2023-04-24T12:04:46;4.60;;;4.07;;
77040;SDS011;65974;42.664;23.264;2023-04-24T12:07:12;6.22;;;5.10;;
77040;SDS011;65974;42.664;23.264;2023-04-24T12:09:40;6.05;;;5.15;;
77040;SDS011;65974;42.664;23.264;2023-04-24T12:12:07;8.10;;;4.68;;
77040;SDS011;65974;42.664;23.264;2023-04-24T12:14:41;5.57;;;4.32;;
77040;SDS011;65974;42.664;23.264;2023-04-24T12:17:10;6.30;;;4.22;;
77040;SDS011;65974;42.664;23.264;2023-04-24T12:19:35;7.18;;;4.43;;
77040;SDS011;65974;42.664;23.264;2023-04-24T12:22:05;4.50;;;4.07;;
77040;SDS011;65974;42.664;23.264;2023-04-24T12:24:31;4.28;;;3.47;;
77040;SDS011;65974;42.664;23.264;2023-04-24T12:26:57;5.10;;;4.45;;
77040;SDS011;65974;42.664;23.264;2023-04-24T12:29:23;5.85;;;4.30;;
77040;SDS011;65974;42.664;23.264;2023-04-24T12:31:50;5.13;;;4.63;;
77040;SDS011;65974;42.664;23.264;2023-04-24T12:36:46;3.40;;;2.90;;
77040;SDS011;65974;42.664;23.264;2023-04-24T12:39:15;5.95;;;4.85;;
77040;SDS011;65974;42.664;23.264;2023-04-24T12:41:57;4.75;;;4.13;;
77040;SDS011;65974;42.664;23.264;2023-04-24T12:44:32;6.15;;;4.18;;
77040;SDS011;65974;42.664;23.264;2023-04-24T12:46:59;7.85;;;5.75;;
77040;SDS011;65974;42.664;23.264;2023-04-24T12:49:27;6.63;;;4.43;;
77040;SDS011;65974;42.664;23.264;2023-04-24T12:51:53;6.38;;;4.95;;
77040;SDS011;65974;42.664;23.264;2023-04-24T12:54:19;4.32;;;3.78;;
77040;SDS011;65974;42.664;23.264;2023-04-24T12:56:44;5.10;;;3.90;;
77040;SDS011;65974;42.664;23.264;2023-04-24T12:59:10;5.55;;;3.83;;
77040;SDS011;65974;42.664;23.264;2023-04-24T13:01:35;6.50;;;4.95;;
77040;SDS011;65974;42.664;23.264;2023-04-24T13:04:00;8.82;;;5.13;;
77040;SDS011;65974;42.664;23.264;2023-04-24T13:06:26;5.95;;;4.53;;
77040;SDS011;65974;42.664;23.264;2023-04-24T13:08:51;10.13;;;4.95;;
77040;SDS011;65974;42.664;23.264;2023-04-24T13:11:17;4.18;;;3.22;;
77040;SDS011;65974;42.664;23.264;2023-04-24T13:13:43;5.57;;;4.00;;
77040;SDS011;65974;42.664;23.264;2023-04-24T13:16:08;7.55;;;4.45;;
77040;SDS011;65974;42.664;23.264;2023-04-24T13:18:34;6.03;;;4.18;;
77040;SDS011;65974;42.664;23.264;2023-04-24T13:20:59;5.30;;;3.67;;
77040;SDS011;65974;42.664;23.264;2023-04-24T13:23:25;5.85;;;4.50;;
77040;SDS011;65974;42.664;23.264;2023-04-24T13:25:51;7.45;;;3.95;;
77040;SDS011;65974;42.664;23.264;2023-04-24T13:28:16;5.75;;;4.50;;
77040;SDS011;65974;42.664;23.264;2023-04-24T13:30:43;6.68;;;5.28;;
77040;SDS011;65974;42.664;23.264;2023-04-24T13:33:08;5.93;;;4.13;;
77040;SDS011;65974;42.664;23.264;2023-04-24T13:35:34;8.95;;;4.40;;
77040;SDS011;65974;42.664;23.264;2023-04-24T13:37:59;6.75;;;4.43;;
77040;SDS011;65974;42.664;23.264;2023-04-24T13:40:27;5.30;;;3.92;;
77040;SDS011;65974;42.664;23.264;2023-04-24T13:42:52;7.05;;;4.15;;
77040;SDS011;65974;42.664;23.264;2023-04-24T13:45:18;6.70;;;4.07;;
77040;SDS011;65974;42.664;23.264;2023-04-24T13:47:43;7.00;;;4.93;;
77040;SDS011;65974;42.664;23.264;2023-04-24T13:50:09;7.50;;;5.03;;
77040;SDS011;65974;42.664;23.264;2023-04-24T13:52:35;5.80;;;4.20;;
77040;SDS011;65974;42.664;23.264;2023-04-24T13:55:00;6.63;;;4.32;;
77040;SDS011;65974;42.664;23.264;2023-04-24T13:57:26;5.55;;;4.65;;
77040;SDS011;65974;42.664;23.264;2023-04-24T13:59:52;6.63;;;4.57;;
77040;SDS011;65974;42.664;23.264;2023-04-24T14:02:17;6.45;;;4.78;;
77040;SDS011;65974;42.664;23.264;2023-04-24T14:04:43;4.40;;;4.00;;
77040;SDS011;65974;42.664;23.264;2023-04-24T14:07:08;8.85;;;4.28;;
77040;SDS011;65974;42.664;23.264;2023-04-24T14:09:34;5.05;;;4.35;;
77040;SDS011;65974;42.664;23.264;2023-04-24T14:11:59;7.10;;;4.63;;
77040;SDS011;65974;42.664;23.264;2023-04-24T14:14:26;5.07;;;4.32;;
77040;SDS011;65974;42.664;23.264;2023-04-24T14:16:52;10.38;;;8.23;;
77040;SDS011;65974;42.664;23.264;2023-04-24T14:19:17;6.03;;;4.28;;
77040;SDS011;65974;42.664;23.264;2023-04-24T14:21:43;7.35;;;4.95;;
77040;SDS011;65974;42.664;23.264;2023-04-24T14:24:08;7.63;;;5.30;;
77040;SDS011;65974;42.664;23.264;2023-04-24T14:26:34;8.82;;;4.15;;
77040;SDS011;65974;42.664;23.264;2023-04-24T14:28:59;5.80;;;4.00;;
77040;SDS011;65974;42.664;23.264;2023-04-24T14:31:25;5.22;;;3.63;;
77040;SDS011;65974;42.664;23.264;2023-04-24T14:33:50;9.95;;;4.38;;
77040;SDS011;65974;42.664;23.264;2023-04-24T14:36:16;8.50;;;3.80;;
77040;SDS011;65974;42.664;23.264;2023-04-24T14:38:41;6.47;;;3.85;;
77040;SDS011;65974;42.664;23.264;2023-04-24T14:41:07;4.35;;;3.95;;
77040;SDS011;65974;42.664;23.264;2023-04-24T14:43:35;5.68;;;3.92;;